Terminal Aerodrome Forecast
Issued by NWS

Home | Current Version | Previous Version | Graphics & Text | Print | Product List | Glossary On
Versions: 1 2 3 4 5 6 7 8 9 10 11 12 13 14 15 16 17 18 19 20
000
FTUS43 KGRB 022300
TAFATW
TAF
KATW 022331Z 0300/0324 19005KT P6SM SCT090 OVC200
     FM030600 16007KT P6SM SCT040 OVC090
      TEMPO 0309/0313 2SM -SN SCT015 BKN030
     FM031300 15013G19KT 1/2SM SN VV007
     FM031900 21011G18KT 1SM -SN BR SCT005 OVC009
     FM032200 24009KT 2SM -SN BR BKN005 OVC009=

USA.gov is the U.S. government's official web portal to all federal, state and local government web resources and services.